createdAt,value
2024-02-12T00:01:05.324Z,96683.58
2024-02-12T00:03:37.250Z,96689.13
2024-02-12T00:06:06.314Z,96699.63
2024-02-12T00:08:33.966Z,96707.02
2024-02-12T00:11:01.627Z,96708.28
2024-02-12T00:13:29.252Z,96697.45
2024-02-12T00:15:56.818Z,96691.63
2024-02-12T00:18:24.801Z,96687.95
2024-02-12T00:20:53.608Z,96685.56
2024-02-12T00:23:25.239Z,96686.09
2024-02-12T00:25:54.386Z,96681.91
2024-02-12T00:28:23.924Z,96681.32
2024-02-12T00:30:51.431Z,96679.44
2024-02-12T00:33:19.080Z,96681.44
2024-02-12T00:35:46.684Z,96677.06
2024-02-12T00:38:14.393Z,96680.48
2024-02-12T00:40:41.970Z,96696.11
2024-02-12T00:43:10.260Z,96698.02
2024-02-12T00:45:37.792Z,96698.98
2024-02-12T00:48:05.774Z,96697.97
2024-02-12T00:50:36.470Z,96693.93
2024-02-12T00:53:04.180Z,96695.27
2024-02-12T00:55:31.734Z,96695.71
2024-02-12T00:57:59.334Z,96697.91
2024-02-12T01:00:28.070Z,96695.48
2024-02-12T01:02:55.631Z,96693.90
2024-02-12T01:05:24.382Z,96694.92
2024-02-12T01:07:52.115Z,96696.23
2024-02-12T01:10:19.574Z,96694.57
2024-02-12T01:12:47.111Z,96689.63
2024-02-12T01:15:16.894Z,96688.86
2024-02-12T01:17:47.279Z,96682.21
2024-02-12T01:20:18.918Z,96678.66
2024-02-12T01:22:46.465Z,96679.86
2024-02-12T01:25:14.043Z,96678.55
2024-02-12T01:27:41.583Z,96672.27
2024-02-12T01:30:10.056Z,96671.33
2024-02-12T01:32:37.732Z,96662.38
2024-02-12T01:35:07.247Z,96653.58
2024-02-12T01:37:34.989Z,96663.48
2024-02-12T01:40:02.522Z,96676.50
2024-02-12T01:42:30.187Z,96676.70
2024-02-12T01:45:13.765Z,96687.38
2024-02-12T01:47:42.942Z,96690.45
2024-02-12T01:50:13.438Z,96677.55
2024-02-12T01:52:41.956Z,96670.52
2024-02-12T01:55:09.795Z,96669.89
2024-02-12T01:57:37.311Z,96671.45
2024-02-12T02:00:06.601Z,96676.58
2024-02-12T02:02:44.556Z,96688.73
2024-02-12T02:05:13.437Z,96687.80
2024-02-12T02:07:41.423Z,96687.06
2024-02-12T02:10:10.563Z,96685.00
2024-02-12T02:12:38.333Z,96696.71
2024-02-12T02:15:11.388Z,96681.88
2024-02-12T02:17:41.016Z,96682.36
2024-02-12T02:20:13.659Z,96694.06
2024-02-12T02:22:41.516Z,96697.59
2024-02-12T02:25:12.892Z,96688.71
2024-02-12T02:27:40.515Z,96687.55
2024-02-12T02:30:11.324Z,96709.48
2024-02-12T02:32:41.553Z,96693.23
2024-02-12T02:35:09.587Z,96695.69
2024-02-12T02:37:37.393Z,96699.88
2024-02-12T02:40:05.474Z,96695.87
2024-02-12T02:42:33.058Z,96693.83
2024-02-12T02:45:00.731Z,96685.66
2024-02-12T02:47:28.323Z,96683.79
2024-02-12T02:49:57.477Z,96685.81
2024-02-12T02:52:25.665Z,96684.48
2024-02-12T02:54:53.496Z,96687.82
2024-02-12T02:57:22.134Z,96695.30
2024-02-12T02:59:49.658Z,96693.16
2024-02-12T03:02:17.158Z,96692.25
2024-02-12T03:04:44.822Z,96692.59
2024-02-12T03:07:13.153Z,96689.57
2024-02-12T03:09:40.683Z,96689.64
2024-02-12T03:12:08.456Z,96694.33
2024-02-12T03:14:37.228Z,96687.71
2024-02-12T03:17:05.013Z,96681.13
2024-02-12T03:19:32.617Z,96676.71
2024-02-12T03:22:00.043Z,96680.36
2024-02-12T03:24:29.409Z,96691.27
2024-02-12T03:26:59.498Z,96693.86
2024-02-12T03:29:32.478Z,96700.38
2024-02-12T03:32:00.179Z,96704.97
2024-02-12T03:34:32.478Z,96705.18
2024-02-12T03:37:00.063Z,96704.66
2024-02-12T03:39:27.768Z,96693.86
2024-02-12T03:41:55.420Z,96688.73
2024-02-12T03:44:22.967Z,96685.25
2024-02-12T03:46:50.420Z,96689.02
2024-02-12T03:49:36.628Z,96692.38
2024-02-12T03:52:22.693Z,96691.80
2024-02-12T03:55:08.781Z,96698.02
2024-02-12T03:57:57.981Z,96693.45
2024-02-12T04:00:25.862Z,96683.14
2024-02-12T04:02:53.400Z,96683.64
2024-02-12T04:05:23.234Z,96678.88
2024-02-12T04:07:50.824Z,96682.65
2024-02-12T04:10:18.274Z,96684.56
2024-02-12T04:12:49.094Z,96685.03
2024-02-12T04:15:17.267Z,96676.58
2024-02-12T04:17:45.133Z,96669.39
2024-02-12T04:20:12.946Z,96664.80
2024-02-12T04:22:40.805Z,96658.58
2024-02-12T04:25:11.641Z,96663.88
2024-02-12T04:27:42.692Z,96668.09
2024-02-12T04:30:11.994Z,96674.60
2024-02-12T04:32:39.805Z,96678.67
2024-02-12T04:35:08.156Z,96674.75
2024-02-12T04:37:35.617Z,96674.84
2024-02-12T04:43:00.372Z,96671.34
2024-02-12T04:45:28.831Z,96679.02
2024-02-12T04:47:57.410Z,96680.79
2024-02-12T04:50:25.172Z,96679.63
2024-02-12T04:52:52.834Z,96676.98
2024-02-12T04:55:20.523Z,96680.74
2024-02-12T04:57:48.224Z,96688.84
2024-02-12T05:00:16.866Z,96684.80
2024-02-12T05:02:44.587Z,96682.02
2024-02-12T05:05:13.155Z,96688.73
2024-02-12T05:07:41.472Z,96685.46
2024-02-12T05:10:09.298Z,96688.04
2024-02-12T05:12:36.819Z,96690.64
2024-02-12T05:15:05.288Z,96693.21
2024-02-12T05:17:53.853Z,96697.64
2024-02-12T05:20:43.547Z,96694.86
2024-02-12T05:23:11.221Z,96695.06
2024-02-12T05:25:39.442Z,96694.91
2024-02-12T05:28:06.962Z,96696.07
2024-02-12T05:30:34.549Z,96700.13
2024-02-12T05:33:02.883Z,96705.05
2024-02-12T05:35:32.141Z,96713.16
2024-02-12T05:37:59.855Z,96717.19
2024-02-12T05:40:27.537Z,96714.80
2024-02-12T05:42:55.140Z,96713.23
2024-02-12T05:45:22.748Z,96715.60
2024-02-12T05:47:50.364Z,96712.53
2024-02-12T05:50:18.592Z,96714.80
2024-02-12T05:52:47.818Z,96718.92
2024-02-12T05:55:15.510Z,96719.02
2024-02-12T05:57:43.025Z,96720.87
2024-02-12T06:00:11.827Z,96718.62
2024-02-12T06:02:39.497Z,96720.11
2024-02-12T06:05:07.259Z,96725.34
2024-02-12T06:07:34.943Z,96730.59
2024-02-12T06:10:04.865Z,96736.65
2024-02-12T06:12:32.422Z,96740.83
2024-02-12T06:14:59.972Z,96742.44
2024-02-12T06:17:27.457Z,96746.08
2024-02-12T06:19:55.164Z,96742.08
2024-02-12T06:22:22.772Z,96735.73
2024-02-12T06:24:50.416Z,96727.48
2024-02-12T06:27:18.440Z,96724.50
2024-02-12T06:29:46.239Z,96725.95
2024-02-12T06:32:16.531Z,96726.50
2024-02-12T06:34:49.844Z,96732.73
2024-02-12T06:37:18.459Z,96732.23
2024-02-12T06:39:46.044Z,96733.89
2024-02-12T06:42:14.058Z,96734.06
2024-02-12T06:44:42.140Z,96729.14
2024-02-12T06:47:10.989Z,96736.39
2024-02-12T06:49:38.808Z,96734.00
2024-02-12T06:52:06.714Z,96735.02
2024-02-12T06:54:35.568Z,96737.92
2024-02-12T06:57:03.138Z,96735.19
2024-02-12T06:59:33.183Z,96734.25
2024-02-12T07:02:01.025Z,96736.66
2024-02-12T07:04:28.732Z,96736.83
2024-02-12T07:06:56.758Z,96732.80
2024-02-12T07:09:26.331Z,96736.77
2024-02-12T07:11:54.572Z,96733.37
2024-02-12T07:14:24.315Z,96733.86
2024-02-12T07:16:58.687Z,96738.88
2024-02-12T07:19:27.609Z,96734.20
2024-02-12T07:21:55.096Z,96734.52
2024-02-12T07:24:23.708Z,96740.20
2024-02-12T07:26:51.325Z,96747.15
2024-02-12T07:29:18.958Z,96747.44
2024-02-12T07:31:46.888Z,96743.89
2024-02-12T07:34:14.741Z,96742.40
2024-02-12T07:36:45.965Z,96741.17
2024-02-12T07:39:20.498Z,96739.20
2024-02-12T07:41:49.205Z,96736.55
2024-02-12T07:44:16.884Z,96737.75
2024-02-12T07:46:48.166Z,96736.82
2024-02-12T07:49:16.731Z,96738.73
2024-02-12T07:51:46.703Z,96738.23
2024-02-12T07:54:16.854Z,96735.41
2024-02-12T07:56:46.546Z,96735.98
2024-02-12T07:59:22.837Z,96735.86
2024-02-12T08:01:54.914Z,96737.18
2024-02-12T08:04:23.560Z,96738.41
2024-02-12T08:06:51.469Z,96737.00
2024-02-12T08:09:24.637Z,96740.56
2024-02-12T08:11:52.054Z,96739.64
2024-02-12T08:14:19.774Z,96737.01
2024-02-12T08:16:47.507Z,96735.67
2024-02-12T08:19:20.211Z,96736.13
2024-02-12T08:21:48.325Z,96738.98
2024-02-12T08:24:18.282Z,96734.95
2024-02-12T08:26:48.834Z,96733.00
2024-02-12T08:29:16.668Z,96734.00
2024-02-12T08:32:02.373Z,96728.57
2024-02-12T08:34:34.348Z,96726.89
2024-02-12T08:37:05.630Z,96721.80
2024-02-12T08:46:55.740Z,96710.73
2024-02-12T08:49:47.037Z,96711.16
2024-02-12T08:52:20.253Z,96717.88
2024-02-12T08:54:48.298Z,96721.98
2024-02-12T08:57:16.255Z,96719.35
2024-02-12T08:59:45.415Z,96721.77
2024-02-12T09:02:12.996Z,96723.84
2024-02-12T09:04:43.895Z,96722.36
2024-02-12T09:07:13.091Z,96719.14
2024-02-12T09:09:41.582Z,96725.75
2024-02-12T09:12:09.385Z,96725.83
2024-02-12T09:14:36.942Z,96728.65
2024-02-12T09:17:06.049Z,96732.09
2024-02-12T09:19:34.110Z,96734.31
2024-02-12T09:22:04.524Z,96732.49
2024-02-12T09:24:42.857Z,96732.83
2024-02-12T09:27:13.569Z,96735.14
2024-02-12T09:29:49.070Z,96734.55
2024-02-12T09:32:16.932Z,96734.54
2024-02-12T09:35:10.788Z,96726.31
2024-02-12T09:37:38.688Z,96724.28
2024-02-12T09:40:08.673Z,96718.78
2024-02-12T09:42:40.850Z,96717.88
2024-02-12T09:45:10.783Z,96719.72
2024-02-12T09:47:38.716Z,96716.92
2024-02-12T09:50:11.042Z,96720.55
2024-02-12T09:52:41.480Z,96719.17
2024-02-12T09:55:11.148Z,96715.89
2024-02-12T09:57:42.654Z,96711.00
2024-02-12T10:00:12.417Z,96707.39
2024-02-12T10:02:45.487Z,96707.48
2024-02-12T10:05:25.226Z,96696.30
2024-02-12T10:07:53.117Z,96691.45
2024-02-12T10:10:20.681Z,96687.50
2024-02-12T10:12:53.615Z,96685.73
2024-02-12T10:15:21.596Z,96685.23
2024-02-12T10:17:49.390Z,96685.21
2024-02-12T10:20:17.386Z,96686.36
2024-02-12T10:22:46.102Z,96682.48
2024-02-12T10:25:20.873Z,96682.20
2024-02-12T10:27:50.979Z,96685.13
2024-02-12T10:30:19.377Z,96679.95
2024-02-12T10:32:51.411Z,96680.81
2024-02-12T10:35:25.124Z,96677.69
2024-02-12T10:38:12.810Z,96673.76
2024-02-12T10:41:05.652Z,96673.86
2024-02-12T10:43:36.654Z,96670.02
2024-02-12T10:46:08.289Z,96665.23
2024-02-12T10:48:39.978Z,96659.98
2024-02-12T10:51:09.500Z,96659.39
2024-02-12T10:53:37.997Z,96659.29
2024-02-12T10:56:08.476Z,96660.32
2024-02-12T10:58:37.495Z,96661.48
2024-02-12T11:01:12.594Z,96658.59
2024-02-12T11:03:41.301Z,96659.77
2024-02-12T11:06:12.906Z,96657.28
2024-02-12T11:08:44.979Z,96657.50
2024-02-12T11:11:20.342Z,96655.40
2024-02-12T11:13:49.793Z,96657.39
2024-02-12T11:16:24.614Z,96653.73
2024-02-12T11:18:56.136Z,96654.41
2024-02-12T11:21:27.516Z,96652.48
2024-02-12T11:24:08.796Z,96647.84
2024-02-12T11:26:47.581Z,96645.67
2024-02-12T11:29:17.432Z,96646.92
2024-02-12T11:31:55.477Z,96643.84
2024-02-12T11:34:23.007Z,96637.26
2024-02-12T11:37:00.498Z,96635.20
2024-02-12T11:39:28.261Z,96632.73
2024-02-12T11:41:55.909Z,96628.66
2024-02-12T11:44:23.400Z,96630.85
2024-02-12T11:46:57.654Z,96631.55
2024-02-12T11:49:28.097Z,96631.31
2024-02-12T11:51:59.040Z,96637.42
2024-02-12T11:54:28.052Z,96637.13
2024-02-12T11:56:55.767Z,96637.09
2024-02-12T11:59:23.823Z,96635.73
2024-02-12T12:01:51.866Z,96636.64
2024-02-12T12:04:21.908Z,96635.19
2024-02-12T12:06:52.142Z,96632.04
2024-02-12T12:09:24.963Z,96626.30
2024-02-12T12:11:53.992Z,96625.48
2024-02-12T12:14:23.500Z,96624.27
2024-02-12T12:17:28.172Z,96622.38
2024-02-12T12:19:43.683Z,96621.45
2024-02-12T12:22:21.552Z,96623.84
2024-02-12T12:24:49.147Z,96620.27
2024-02-12T12:27:26.465Z,96621.56
2024-02-12T12:29:55.870Z,96621.64
2024-02-12T12:32:26.716Z,96622.67
2024-02-12T12:34:57.125Z,96618.96
2024-02-12T12:37:26.011Z,96619.14
2024-02-12T12:39:54.814Z,96616.08
2024-02-12T12:42:22.319Z,96614.05
2024-02-12T12:44:53.445Z,96616.35
2024-02-12T12:47:21.033Z,96615.23
2024-02-12T12:49:49.741Z,96617.23
2024-02-12T12:52:22.277Z,96614.98
2024-02-12T12:54:52.203Z,96613.16
2024-02-12T12:57:20.501Z,96614.05
2024-02-12T12:59:48.046Z,96610.64
2024-02-12T13:02:15.602Z,96611.33
2024-02-12T13:04:43.715Z,96611.98
2024-02-12T13:07:14.845Z,96610.39
2024-02-12T13:09:45.491Z,96611.42
2024-02-12T13:12:14.058Z,96609.10
2024-02-12T13:14:53.996Z,96605.13
2024-02-12T13:17:24.161Z,96606.60
2024-02-12T13:19:54.393Z,96604.81
2024-02-12T13:22:24.360Z,96604.74
2024-02-12T13:24:55.730Z,96604.64
2024-02-12T13:27:25.176Z,96602.84
2024-02-12T13:29:54.407Z,96611.23
2024-02-12T13:32:22.029Z,96611.93
2024-02-12T13:34:50.110Z,96610.02
2024-02-12T13:37:18.759Z,96606.92
2024-02-12T13:39:46.576Z,96603.40
2024-02-12T13:42:16.347Z,96608.56
2024-02-12T13:44:46.902Z,96607.59
2024-02-12T13:47:14.798Z,96614.33
2024-02-12T13:49:44.951Z,96619.38
2024-02-12T13:52:12.580Z,96614.95
2024-02-12T13:54:44.378Z,96615.85
2024-02-12T13:57:12.520Z,96612.77
2024-02-12T13:59:45.229Z,96611.44
2024-02-12T14:02:15.013Z,96610.45
2024-02-12T14:04:45.735Z,96614.06
2024-02-12T14:07:15.663Z,96620.31
2024-02-12T14:09:44.033Z,96621.86
2024-02-12T14:12:18.330Z,96623.48
2024-02-12T14:14:49.368Z,96626.65
2024-02-12T14:17:16.874Z,96629.56
2024-02-12T14:19:47.071Z,96632.67
2024-02-12T14:22:14.776Z,96633.96
2024-02-12T14:24:42.330Z,96636.85
2024-02-12T14:27:11.283Z,96641.80
2024-02-12T14:29:40.514Z,96641.23
2024-02-12T14:32:38.296Z,96642.62
2024-02-12T14:34:57.927Z,96650.77
2024-02-12T14:37:25.703Z,96654.28
2024-02-12T14:39:53.307Z,96659.59
2024-02-12T14:42:24.448Z,96655.80
2024-02-12T14:44:53.160Z,96663.12
2024-02-12T14:47:21.546Z,96661.27
2024-02-12T14:49:49.984Z,96662.17
2024-02-12T14:52:18.612Z,96670.19
2024-02-12T14:54:46.587Z,96665.95
2024-02-12T14:57:15.427Z,96670.15
2024-02-12T14:59:43.069Z,96674.04
2024-02-12T15:02:15.396Z,96673.09
2024-02-12T15:04:46.561Z,96677.63
2024-02-12T15:07:19.936Z,96678.94
2024-02-12T15:09:48.142Z,96681.30
2024-02-12T15:12:21.786Z,96679.91
2024-02-12T15:14:50.267Z,96684.90
2024-02-12T15:17:18.696Z,96692.70
2024-02-12T15:19:49.651Z,96698.46
2024-02-12T15:22:26.196Z,96701.08
2024-02-12T15:24:54.427Z,96702.06
2024-02-12T15:27:22.096Z,96706.52
2024-02-12T15:29:49.746Z,96706.80
2024-02-12T15:32:17.363Z,96706.76
2024-02-12T15:34:48.287Z,96705.83
2024-02-12T15:37:19.345Z,96708.16
2024-02-12T15:39:47.821Z,96708.66
2024-02-12T15:42:18.673Z,96708.67
2024-02-12T15:44:47.313Z,96718.31
2024-02-12T15:47:14.925Z,96720.54
2024-02-12T15:49:42.603Z,96723.14
2024-02-12T15:52:12.273Z,96727.24
2024-02-12T15:54:51.049Z,96726.04
2024-02-12T15:57:19.011Z,96731.45
2024-02-12T15:59:46.786Z,96732.16
2024-02-12T16:02:15.948Z,96733.46
2024-02-12T16:04:45.688Z,96736.64
2024-02-12T16:07:14.123Z,96741.66
2024-02-12T16:09:42.090Z,96747.02
2024-02-12T16:12:14.675Z,96747.98
2024-02-12T16:14:45.491Z,96751.30
2024-02-12T16:17:15.286Z,96751.14
2024-02-12T16:19:44.190Z,96752.59
2024-02-12T16:22:11.978Z,96753.29
2024-02-12T16:24:39.673Z,96750.98
2024-02-12T16:27:08.579Z,96748.91
2024-02-12T16:29:36.408Z,96749.63
2024-02-12T16:32:04.876Z,96750.59
2024-02-12T16:34:32.507Z,96750.11
2024-02-12T16:37:00.409Z,96755.34
2024-02-12T16:39:28.986Z,96752.89
2024-02-12T16:41:57.121Z,96753.72
2024-02-12T16:44:27.963Z,96754.58
2024-02-12T16:46:55.443Z,96758.02
2024-02-12T16:49:23.113Z,96759.65
2024-02-12T16:51:53.603Z,96762.38
2024-02-12T16:54:21.649Z,96766.25
2024-02-12T16:56:49.638Z,96774.27
2024-02-12T17:00:38.302Z,96778.85
2024-02-12T17:03:06.157Z,96785.28
2024-02-12T17:05:34.400Z,96786.80
2024-02-12T17:08:07.468Z,96787.29
2024-02-12T17:10:37.889Z,96786.94
2024-02-12T17:13:06.771Z,96788.64
2024-02-12T17:15:38.289Z,96786.60
2024-02-12T17:18:10.797Z,96786.74
2024-02-12T17:20:39.013Z,96784.48
2024-02-12T17:23:07.443Z,96783.79
2024-02-12T17:25:35.348Z,96787.61
2024-02-12T17:28:04.794Z,96785.33
2024-02-12T17:30:32.526Z,96786.73
2024-02-12T17:33:01.710Z,96792.83
2024-02-12T17:35:29.631Z,96796.77
2024-02-12T17:37:57.436Z,96800.73
2024-02-12T17:40:24.978Z,96805.28
2024-02-12T17:42:53.601Z,96801.63
2024-02-12T17:45:21.184Z,96805.05
2024-02-12T17:47:48.858Z,96801.64
2024-02-12T17:50:16.396Z,96800.02
2024-02-12T17:52:44.383Z,96799.77
2024-02-12T17:55:12.001Z,96797.65
2024-02-12T17:57:39.524Z,96795.66
2024-02-12T18:00:13.701Z,96793.31
2024-02-12T18:02:41.743Z,96797.40
2024-02-12T18:05:14.091Z,96793.59
2024-02-12T18:07:42.029Z,96792.80
2024-02-12T18:10:15.282Z,96792.57
2024-02-12T18:12:46.413Z,96796.05
2024-02-12T18:15:15.302Z,96798.45
2024-02-12T18:17:43.920Z,96798.08
2024-02-12T18:20:12.610Z,96799.31
2024-02-12T18:22:40.370Z,96799.75
2024-02-12T18:25:13.099Z,96797.81
2024-02-12T18:27:41.033Z,96797.77
2024-02-12T18:30:09.116Z,96796.81
2024-02-12T18:32:38.622Z,96793.91
2024-02-12T18:35:07.561Z,96796.64
2024-02-12T18:37:38.798Z,96799.05
2024-02-12T18:47:49.570Z,96807.95
2024-02-12T18:50:18.824Z,96809.91
2024-02-12T18:52:50.131Z,96815.16
2024-02-12T18:55:18.848Z,96817.67
2024-02-12T18:57:52.169Z,96820.98
2024-02-12T19:00:20.675Z,96822.77
2024-02-12T19:02:50.303Z,96825.09
2024-02-12T19:05:26.075Z,96822.12
2024-02-12T19:07:53.956Z,96828.02
2024-02-12T19:10:21.483Z,96827.10
2024-02-12T19:12:50.681Z,96837.09
2024-02-12T19:15:19.137Z,96841.42
2024-02-12T19:17:47.359Z,96846.25
2024-02-12T19:20:18.340Z,96844.75
2024-02-12T19:22:48.317Z,96845.11
2024-02-12T19:25:23.979Z,96842.69
2024-02-12T19:27:55.014Z,96843.59
2024-02-12T19:30:22.901Z,96846.41
2024-02-12T19:32:51.803Z,96850.44
2024-02-12T19:35:19.847Z,96853.88
2024-02-12T19:37:51.958Z,96856.12
2024-02-12T19:40:19.501Z,96859.14
2024-02-12T19:42:47.489Z,96859.44
2024-02-12T19:45:15.693Z,96862.88
2024-02-12T19:47:44.089Z,96863.34
2024-02-12T19:50:13.080Z,96868.98
2024-02-12T19:52:43.433Z,96873.04
2024-02-12T19:55:13.660Z,96868.83
2024-02-12T20:00:34.876Z,96872.90
2024-02-12T20:03:08.316Z,96871.18
2024-02-12T20:05:36.394Z,96874.86
2024-02-12T20:08:04.802Z,96881.95
2024-02-12T20:10:32.407Z,96884.06
2024-02-12T20:13:06.056Z,96891.09
2024-02-12T20:15:35.740Z,96895.56
2024-02-12T20:18:06.878Z,96903.10
2024-02-12T20:20:35.129Z,96906.64
2024-02-12T20:23:02.947Z,96909.14
2024-02-12T20:25:30.626Z,96908.30
2024-02-12T20:27:58.280Z,96902.02
2024-02-12T20:30:27.403Z,96897.59
2024-02-12T20:32:56.023Z,96895.14
2024-02-12T20:35:25.732Z,96882.48
2024-02-12T20:37:53.695Z,96873.60
2024-02-12T20:40:21.320Z,96872.71
2024-02-12T20:42:48.932Z,96871.84
2024-02-12T20:45:18.971Z,96874.69
2024-02-12T20:47:46.998Z,96882.16
2024-02-12T20:50:14.893Z,96889.27
2024-02-12T20:52:45.463Z,96884.05
2024-02-12T20:55:14.791Z,96876.80
2024-02-12T20:57:42.663Z,96878.56
2024-02-12T21:00:10.831Z,96881.36
2024-02-12T21:02:38.410Z,96884.39
2024-02-12T21:05:11.220Z,96886.70
2024-02-12T21:07:39.041Z,96892.91
2024-02-12T21:10:07.208Z,96889.52
2024-02-12T21:12:35.867Z,96884.44
2024-02-12T21:15:04.766Z,96890.16
2024-02-12T21:17:32.895Z,96894.42
2024-02-12T21:20:00.579Z,96885.23
2024-02-12T21:22:28.244Z,96891.25
2024-02-12T21:24:55.774Z,96887.66
2024-02-12T21:27:23.288Z,96888.13
2024-02-12T21:29:52.014Z,96889.00
2024-02-12T21:32:19.811Z,96887.48
2024-02-12T21:34:47.646Z,96887.30
2024-02-12T21:37:18.776Z,96887.81
2024-02-12T21:39:47.115Z,96894.52
2024-02-12T21:42:32.566Z,96902.13
2024-02-12T21:45:01.986Z,96904.89
2024-02-12T21:47:29.911Z,96911.11
2024-02-12T21:49:57.836Z,96907.40
2024-02-12T21:52:28.290Z,96907.73
2024-02-12T21:54:55.928Z,96899.97
2024-02-12T21:57:24.527Z,96904.33
2024-02-12T21:59:53.584Z,96907.98
2024-02-12T22:02:21.655Z,96904.00
2024-02-12T22:04:53.640Z,96912.02
2024-02-12T22:07:21.768Z,96911.67
2024-02-12T22:09:49.836Z,96906.77
2024-02-12T22:12:20.089Z,96908.70
2024-02-12T22:14:50.014Z,96903.92
2024-02-12T22:17:18.045Z,96913.37
2024-02-12T22:19:54.553Z,96915.56
2024-02-12T22:22:22.602Z,96918.84
2024-02-12T22:24:57.296Z,96920.60
2024-02-12T22:27:24.971Z,96920.44
2024-02-12T22:29:52.554Z,96920.76
2024-02-12T22:32:20.111Z,96920.70
2024-02-12T22:34:47.883Z,96928.35
2024-02-12T22:37:15.704Z,96926.16
2024-02-12T22:42:27.177Z,96929.45
2024-02-12T22:49:24.127Z,96935.27
2024-02-12T22:51:52.055Z,96942.70
2024-02-12T22:54:19.697Z,96941.27
2024-02-12T22:56:47.316Z,96943.64
2024-02-12T22:59:15.008Z,96946.94
2024-02-12T23:01:45.082Z,96948.48
2024-02-12T23:04:12.640Z,96955.64
2024-02-12T23:06:40.246Z,96954.23
2024-02-12T23:09:07.983Z,96954.64
2024-02-12T23:11:35.988Z,96951.77
2024-02-12T23:14:06.266Z,96951.52
2024-02-12T23:16:34.061Z,96955.66
2024-02-12T23:19:02.340Z,96954.30
2024-02-12T23:21:30.077Z,96956.98
2024-02-12T23:23:58.014Z,96959.00
2024-02-12T23:26:27.866Z,96961.37
2024-02-12T23:29:01.725Z,96962.95
2024-02-12T23:31:34.449Z,96967.48
2024-02-12T23:34:02.478Z,96965.45
2024-02-12T23:36:31.276Z,96968.27
2024-02-12T23:38:59.029Z,96965.35
2024-02-12T23:41:28.341Z,96967.41
2024-02-12T23:43:55.862Z,96978.27
2024-02-12T23:46:23.412Z,96978.83
2024-02-12T23:48:50.996Z,96978.46
2024-02-12T23:51:18.615Z,96981.95
2024-02-12T23:53:46.254Z,96983.10
2024-02-12T23:56:24.380Z,96980.52
2024-02-12T23:58:53.292Z,96980.48
